Greenview, California
Current Conditions -  °F | °C
As of 6:53 AM on Saturday 25 Oct 2014 (Local Time) from KSIY Reporting Station
Overcast Overcast  
Wind Chill: 53°   Ceiling: 9500
Heat Index: 53°   Visibility: 10mi
Dew Point: 41°   Wind: 32mph
Humidity: 64%   Direction: 180°S
Pressure: 29.69"   Gusts: 36mph
Location:  41.55°N, 122.9°W
Report Text: KSIY 251353Z AUTO 18028G31KT 10SM SCT050 BKN095 OVC110 12/05 A2969 RMK AO2 PK WND 17031/1353 RAE45 SLP055 P0003 T01170050 $
Loading
Personal Weather Stations






























Interactive Weather Map
Tropical Storm Tracking
New forecast layout! Learn more

10-Day Weather Forecast

Advertisements
Track Severe Weather on mobile